sensor_id;sensor_type;location;lat;lon;timestamp;pressure;altitude;pressure_sealevel;temperature;humidity
66945;BME280;53853;51.982;5.928;2023-07-29T00:01:17;100627.16;;;19.07;81.83
66945;BME280;53853;51.982;5.928;2023-07-29T00:03:47;100636.50;;;19.05;81.97
66945;BME280;53853;51.982;5.928;2023-07-29T00:06:17;100617.81;;;19.03;82.35
66945;BME280;53853;51.982;5.928;2023-07-29T00:08:46;100621.56;;;19.02;82.42
66945;BME280;53853;51.982;5.928;2023-07-29T00:11:19;100629.69;;;19.02;82.24
66945;BME280;53853;51.982;5.928;2023-07-29T00:13:49;100618.22;;;19.00;82.34
66945;BME280;53853;51.982;5.928;2023-07-29T00:16:19;100608.69;;;18.97;82.62
66945;BME280;53853;51.982;5.928;2023-07-29T00:18:49;100624.28;;;18.95;82.07
66945;BME280;53853;51.982;5.928;2023-07-29T00:21:19;100621.59;;;18.95;82.44
66945;BME280;53853;51.982;5.928;2023-07-29T00:23:49;100623.22;;;18.96;82.18
66945;BME280;53853;51.982;5.928;2023-07-29T00:26:22;100627.81;;;18.96;82.12
66945;BME280;53853;51.982;5.928;2023-07-29T00:28:52;100621.59;;;18.95;82.40
66945;BME280;53853;51.982;5.928;2023-07-29T00:31:22;100590.81;;;18.96;82.22
66945;BME280;53853;51.982;5.928;2023-07-29T00:33:52;100593.53;;;18.96;82.09
66945;BME280;53853;51.982;5.928;2023-07-29T00:36:22;100589.59;;;18.92;81.57
66945;BME280;53853;51.982;5.928;2023-07-29T00:38:52;100583.56;;;18.90;81.47
66945;BME280;53853;51.982;5.928;2023-07-29T00:41:26;100585.03;;;18.86;81.49
66945;BME280;53853;51.982;5.928;2023-07-29T00:43:56;100583.97;;;18.80;82.26
66945;BME280;53853;51.982;5.928;2023-07-29T00:46:28;100577.97;;;18.78;82.55
66945;BME280;53853;51.982;5.928;2023-07-29T00:48:58;100579.84;;;18.78;82.49
66945;BME280;53853;51.982;5.928;2023-07-29T00:51:28;100569.47;;;18.75;81.76
66945;BME280;53853;51.982;5.928;2023-07-29T00:53:58;100575.28;;;18.72;82.67
66945;BME280;53853;51.982;5.928;2023-07-29T00:56:31;100575.69;;;18.69;82.66
66945;BME280;53853;51.982;5.928;2023-07-29T00:59:01;100577.97;;;18.65;83.02
66945;BME280;53853;51.982;5.928;2023-07-29T01:01:32;100589.81;;;18.64;83.45
66945;BME280;53853;51.982;5.928;2023-07-29T01:04:02;100593.56;;;18.63;83.01
66945;BME280;53853;51.982;5.928;2023-07-29T01:06:39;100601.03;;;18.61;82.92
66945;BME280;53853;51.982;5.928;2023-07-29T01:09:17;100600.63;;;18.57;83.02
66945;BME280;53853;51.982;5.928;2023-07-29T01:11:59;100604.56;;;18.61;83.14
66945;BME280;53853;51.982;5.928;2023-07-29T01:14:36;100612.03;;;18.66;83.62
66945;BME280;53853;51.982;5.928;2023-07-29T01:17:12;100611.19;;;18.72;83.27
66945;BME280;53853;51.982;5.928;2023-07-29T01:19:48;100616.78;;;18.77;83.54
66945;BME280;53853;51.982;5.928;2023-07-29T01:22:25;100607.03;;;18.83;83.30
66945;BME280;53853;51.982;5.928;2023-07-29T01:24:59;100592.94;;;18.88;83.05
66945;BME280;53853;51.982;5.928;2023-07-29T01:27:29;100590.03;;;18.89;83.45
66945;BME280;53853;51.982;5.928;2023-07-29T01:30:00;100591.47;;;18.92;83.41
66945;BME280;53853;51.982;5.928;2023-07-29T01:32:38;100575.91;;;18.94;83.31
66945;BME280;53853;51.982;5.928;2023-07-29T01:35:15;100574.00;;;18.94;83.23
66945;BME280;53853;51.982;5.928;2023-07-29T01:37:50;100572.13;;;18.95;83.28
66945;BME280;53853;51.982;5.928;2023-07-29T01:40:23;100570.88;;;18.97;83.22
66945;BME280;53853;51.982;5.928;2023-07-29T01:42:55;100575.25;;;18.98;82.81
66945;BME280;53853;51.982;5.928;2023-07-29T01:45:26;100567.16;;;18.98;82.63
66945;BME280;53853;51.982;5.928;2023-07-29T01:47:58;100570.47;;;19.00;82.21
66945;BME280;53853;51.982;5.928;2023-07-29T01:50:28;100579.19;;;19.03;82.39
66945;BME280;53853;51.982;5.928;2023-07-29T01:52:59;100578.34;;;19.02;82.85
66945;BME280;53853;51.982;5.928;2023-07-29T01:55:32;100577.09;;;19.05;83.13
66945;BME280;53853;51.982;5.928;2023-07-29T01:58:02;100579.56;;;19.06;83.32
66945;BME280;53853;51.982;5.928;2023-07-29T02:00:34;100563.78;;;19.10;83.04
66945;BME280;53853;51.982;5.928;2023-07-29T02:03:04;100573.31;;;19.12;83.01
66945;BME280;53853;51.982;5.928;2023-07-29T02:05:34;100573.31;;;19.12;83.19
66945;BME280;53853;51.982;5.928;2023-07-29T02:08:04;100570.41;;;19.14;82.89
66945;BME280;53853;51.982;5.928;2023-07-29T02:10:36;100566.91;;;19.13;83.18
66945;BME280;53853;51.982;5.928;2023-07-29T02:13:06;100570.63;;;19.12;83.86
66945;BME280;53853;51.982;5.928;2023-07-29T02:15:36;100570.19;;;19.15;83.31
66945;BME280;53853;51.982;5.928;2023-07-29T02:18:06;100565.44;;;19.17;83.35
66945;BME280;53853;51.982;5.928;2023-07-29T02:20:36;100564.16;;;19.20;83.46
66945;BME280;53853;51.982;5.928;2023-07-29T02:23:06;100555.84;;;19.22;83.40
66945;BME280;53853;51.982;5.928;2023-07-29T02:25:39;100561.63;;;19.25;83.19
66945;BME280;53853;51.982;5.928;2023-07-29T02:28:09;100558.72;;;19.27;83.06
66945;BME280;53853;51.982;5.928;2023-07-29T02:30:42;100566.63;;;19.28;83.41
66945;BME280;53853;51.982;5.928;2023-07-29T02:33:14;100568.28;;;19.29;83.47
66945;BME280;53853;51.982;5.928;2023-07-29T02:35:44;100556.22;;;19.32;83.37
66945;BME280;53853;51.982;5.928;2023-07-29T02:38:14;100568.25;;;19.36;83.45
66945;BME280;53853;51.982;5.928;2023-07-29T02:40:46;100567.00;;;19.39;83.42
66945;BME280;53853;51.982;5.928;2023-07-29T02:43:16;100573.22;;;19.39;83.02
66945;BME280;53853;51.982;5.928;2023-07-29T02:45:46;100562.81;;;19.43;82.78
66945;BME280;53853;51.982;5.928;2023-07-29T02:48:16;100573.41;;;19.44;82.90
66945;BME280;53853;51.982;5.928;2023-07-29T02:53:22;100565.94;;;19.46;82.55
66945;BME280;53853;51.982;5.928;2023-07-29T02:55:55;100555.72;;;19.48;82.59
66945;BME280;53853;51.982;5.928;2023-07-29T02:58:25;100557.41;;;19.49;82.51
66945;BME280;53853;51.982;5.928;2023-07-29T03:01:01;100553.63;;;19.50;82.43
66945;BME280;53853;51.982;5.928;2023-07-29T03:03:31;100557.19;;;19.51;82.06
66945;BME280;53853;51.982;5.928;2023-07-29T03:06:03;100552.00;;;19.49;82.09
66945;BME280;53853;51.982;5.928;2023-07-29T03:08:33;100552.00;;;19.49;81.80
66945;BME280;53853;51.982;5.928;2023-07-29T03:11:09;100551.34;;;19.47;81.55
66945;BME280;53853;51.982;5.928;2023-07-29T03:13:40;100551.34;;;19.47;81.27
66945;BME280;53853;51.982;5.928;2023-07-29T03:16:11;100549.94;;;19.45;81.14
66945;BME280;53853;51.982;5.928;2023-07-29T03:18:44;100556.97;;;19.46;81.24
66945;BME280;53853;51.982;5.928;2023-07-29T03:21:14;100555.34;;;19.45;81.19
66945;BME280;53853;51.982;5.928;2023-07-29T03:23:44;100552.84;;;19.43;81.11
66945;BME280;53853;51.982;5.928;2023-07-29T03:26:17;100551.19;;;19.42;80.76
66945;BME280;53853;51.982;5.928;2023-07-29T03:28:47;100548.47;;;19.42;80.90
66945;BME280;53853;51.982;5.928;2023-07-29T03:31:17;100549.72;;;19.40;80.45
66945;BME280;53853;51.982;5.928;2023-07-29T03:33:47;100544.53;;;19.38;80.66
66945;BME280;53853;51.982;5.928;2023-07-29T03:36:17;100538.31;;;19.37;80.63
66945;BME280;53853;51.982;5.928;2023-07-29T03:38:47;100548.31;;;19.37;80.33
66945;BME280;53853;51.982;5.928;2023-07-29T03:41:20;100544.16;;;19.34;80.39
66945;BME280;53853;51.982;5.928;2023-07-29T03:43:49;100549.16;;;19.31;80.01
66945;BME280;53853;51.982;5.928;2023-07-29T03:46:19;100544.19;;;19.28;79.57
66945;BME280;53853;51.982;5.928;2023-07-29T03:48:49;100538.38;;;19.24;79.62
66945;BME280;53853;51.982;5.928;2023-07-29T03:51:19;100530.50;;;19.23;79.59
66945;BME280;53853;51.982;5.928;2023-07-29T03:53:50;100535.91;;;19.23;79.49
66945;BME280;53853;51.982;5.928;2023-07-29T03:56:23;100540.44;;;19.22;79.81
66945;BME280;53853;51.982;5.928;2023-07-29T03:58:53;100548.78;;;19.21;79.57
66945;BME280;53853;51.982;5.928;2023-07-29T04:01:31;100556.47;;;19.17;79.44
66945;BME280;53853;51.982;5.928;2023-07-29T04:04:01;100550.69;;;19.13;79.17
66945;BME280;53853;51.982;5.928;2023-07-29T04:06:31;100554.63;;;19.11;79.29
66945;BME280;53853;51.982;5.928;2023-07-29T04:09:01;100544.47;;;19.06;79.06
66945;BME280;53853;51.982;5.928;2023-07-29T04:11:35;100539.28;;;19.05;79.08
66945;BME280;53853;51.982;5.928;2023-07-29T04:14:05;100535.75;;;19.04;79.18
66945;BME280;53853;51.982;5.928;2023-07-29T04:16:34;100550.28;;;19.03;78.92
66945;BME280;53853;51.982;5.928;2023-07-29T04:19:04;100551.34;;;19.02;78.90
66945;BME280;53853;51.982;5.928;2023-07-29T04:21:34;100545.31;;;19.00;78.68
66945;BME280;53853;51.982;5.928;2023-07-29T04:24:04;100545.56;;;18.98;78.89
66945;BME280;53853;51.982;5.928;2023-07-29T04:26:37;100548.88;;;18.94;77.92
66945;BME280;53853;51.982;5.928;2023-07-29T04:29:07;100542.25;;;18.90;78.08
66945;BME280;53853;51.982;5.928;2023-07-29T04:31:34;100535.19;;;18.89;77.94
66945;BME280;53853;51.982;5.928;2023-07-29T04:34:05;100521.06;;;18.87;78.00
66945;BME280;53853;51.982;5.928;2023-07-29T04:36:35;100519.41;;;18.86;77.95
66945;BME280;53853;51.982;5.928;2023-07-29T04:39:05;100516.06;;;18.83;77.98
66945;BME280;53853;51.982;5.928;2023-07-29T04:41:38;100508.81;;;18.84;77.89
66945;BME280;53853;51.982;5.928;2023-07-29T04:44:08;100518.16;;;18.81;77.97
66945;BME280;53853;51.982;5.928;2023-07-29T04:46:38;100511.69;;;18.82;78.11
66945;BME280;53853;51.982;5.928;2023-07-29T04:49:08;100517.75;;;18.85;78.26
66945;BME280;53853;51.982;5.928;2023-07-29T04:51:38;100525.19;;;18.82;77.62
66945;BME280;53853;51.982;5.928;2023-07-29T04:54:08;100534.13;;;18.83;77.44
66945;BME280;53853;51.982;5.928;2023-07-29T04:56:40;100548.88;;;18.80;76.24
66945;BME280;53853;51.982;5.928;2023-07-29T04:59:10;100560.50;;;18.81;76.36
66945;BME280;53853;51.982;5.928;2023-07-29T05:01:40;100569.66;;;18.80;76.29
66945;BME280;53853;51.982;5.928;2023-07-29T05:04:10;100578.78;;;18.79;76.27
66945;BME280;53853;51.982;5.928;2023-07-29T05:06:41;100577.16;;;18.78;76.12
66945;BME280;53853;51.982;5.928;2023-07-29T05:09:14;100574.25;;;18.79;76.28
66945;BME280;53853;51.982;5.928;2023-07-29T05:11:47;100574.84;;;18.81;76.04
66945;BME280;53853;51.982;5.928;2023-07-29T05:14:18;100566.75;;;18.81;76.03
66945;BME280;53853;51.982;5.928;2023-07-29T05:16:50;100576.31;;;18.84;76.02
66945;BME280;53853;51.982;5.928;2023-07-29T05:19:20;100570.91;;;18.84;74.67
66945;BME280;53853;51.982;5.928;2023-07-29T05:21:50;100569.22;;;18.83;74.43
66945;BME280;53853;51.982;5.928;2023-07-29T05:24:19;100576.47;;;18.82;74.13
66945;BME280;53853;51.982;5.928;2023-07-29T05:26:52;100575.66;;;18.82;74.36
66945;BME280;53853;51.982;5.928;2023-07-29T05:29:22;100572.56;;;18.85;74.38
66945;BME280;53853;51.982;5.928;2023-07-29T05:31:52;100575.69;;;18.89;74.65
66945;BME280;53853;51.982;5.928;2023-07-29T05:34:23;100588.75;;;18.92;74.61
66945;BME280;53853;51.982;5.928;2023-07-29T05:36:54;100591.25;;;18.93;73.83
66945;BME280;53853;51.982;5.928;2023-07-29T05:39:24;100583.16;;;18.93;73.11
66945;BME280;53853;51.982;5.928;2023-07-29T05:41:57;100595.81;;;18.93;73.61
66945;BME280;53853;51.982;5.928;2023-07-29T05:44:29;100595.00;;;18.92;73.32
66945;BME280;53853;51.982;5.928;2023-07-29T05:47:01;100595.81;;;18.93;73.33
66945;BME280;53853;51.982;5.928;2023-07-29T05:49:31;100593.13;;;18.93;72.79
66945;BME280;53853;51.982;5.928;2023-07-29T05:52:01;100597.72;;;18.92;73.21
66945;BME280;53853;51.982;5.928;2023-07-29T05:54:31;100593.34;;;18.91;73.02
66945;BME280;53853;51.982;5.928;2023-07-29T05:57:04;100599.56;;;18.92;72.75
66945;BME280;53853;51.982;5.928;2023-07-29T05:59:34;100602.47;;;18.90;72.63
66945;BME280;53853;51.982;5.928;2023-07-29T06:02:04;100601.03;;;18.94;73.39
66945;BME280;53853;51.982;5.928;2023-07-29T06:04:34;100592.91;;;19.01;73.48
66945;BME280;53853;51.982;5.928;2023-07-29T06:07:05;100599.34;;;19.07;73.33
66945;BME280;53853;51.982;5.928;2023-07-29T06:09:36;100598.28;;;19.14;73.27
66945;BME280;53853;51.982;5.928;2023-07-29T06:12:09;100593.06;;;19.19;73.50
66945;BME280;53853;51.982;5.928;2023-07-29T06:14:39;100598.25;;;19.21;72.38
66945;BME280;53853;51.982;5.928;2023-07-29T06:17:09;100596.56;;;19.20;72.43
66945;BME280;53853;51.982;5.928;2023-07-29T06:19:39;100598.03;;;19.23;72.80
66945;BME280;53853;51.982;5.928;2023-07-29T06:22:10;100600.72;;;19.29;72.85
66945;BME280;53853;51.982;5.928;2023-07-29T06:24:40;100597.97;;;19.36;72.45
66945;BME280;53853;51.982;5.928;2023-07-29T06:27:12;100593.38;;;19.43;72.64
66945;BME280;53853;51.982;5.928;2023-07-29T06:29:42;100599.56;;;19.50;72.12
66945;BME280;53853;51.982;5.928;2023-07-29T06:32:12;100601.63;;;19.55;71.51
66945;BME280;53853;51.982;5.928;2023-07-29T06:34:42;100596.41;;;19.60;71.36
66945;BME280;53853;51.982;5.928;2023-07-29T06:37:12;100597.81;;;19.69;72.08
66945;BME280;53853;51.982;5.928;2023-07-29T06:39:42;100595.75;;;19.78;70.86
66945;BME280;53853;51.982;5.928;2023-07-29T06:42:14;100604.66;;;19.79;70.80
66945;BME280;53853;51.982;5.928;2023-07-29T06:44:44;100605.50;;;19.79;70.91
66945;BME280;53853;51.982;5.928;2023-07-29T06:47:14;100607.97;;;19.81;70.62
66945;BME280;53853;51.982;5.928;2023-07-29T06:49:45;100600.72;;;19.81;70.68
66945;BME280;53853;51.982;5.928;2023-07-29T06:52:15;100607.53;;;19.84;70.88
66945;BME280;53853;51.982;5.928;2023-07-29T06:54:45;100599.63;;;19.89;70.47
66945;BME280;53853;51.982;5.928;2023-07-29T06:57:17;100598.94;;;19.94;70.38
66945;BME280;53853;51.982;5.928;2023-07-29T06:59:47;100595.34;;;20.06;71.32
66945;BME280;53853;51.982;5.928;2023-07-29T07:02:17;100603.59;;;20.18;71.56
66945;BME280;53853;51.982;5.928;2023-07-29T07:04:47;100606.22;;;20.25;70.40
66945;BME280;53853;51.982;5.928;2023-07-29T07:07:17;100605.59;;;20.30;70.22
66945;BME280;53853;51.982;5.928;2023-07-29T07:09:47;100603.47;;;20.32;69.91
66945;BME280;53853;51.982;5.928;2023-07-29T07:12:19;100601.56;;;20.39;70.40
66945;BME280;53853;51.982;5.928;2023-07-29T07:14:49;100603.38;;;20.45;69.61
66945;BME280;53853;51.982;5.928;2023-07-29T07:17:19;100603.38;;;20.45;69.20
66945;BME280;53853;51.982;5.928;2023-07-29T07:19:49;100607.31;;;20.49;69.33
66945;BME280;53853;51.982;5.928;2023-07-29T07:22:19;100600.84;;;20.50;68.73
66945;BME280;53853;51.982;5.928;2023-07-29T07:24:49;100606.84;;;20.52;69.25
66945;BME280;53853;51.982;5.928;2023-07-29T07:27:21;100612.59;;;20.62;69.32
66945;BME280;53853;51.982;5.928;2023-07-29T07:29:51;100619.50;;;20.65;68.71
66945;BME280;53853;51.982;5.928;2023-07-29T07:32:21;100623.63;;;20.68;68.54
66945;BME280;53853;51.982;5.928;2023-07-29T07:34:51;100628.16;;;20.74;68.32
66945;BME280;53853;51.982;5.928;2023-07-29T07:37:21;100621.06;;;20.73;67.67
66945;BME280;53853;51.982;5.928;2023-07-29T07:39:51;100620.03;;;20.74;68.21
66945;BME280;53853;51.982;5.928;2023-07-29T07:42:23;100620.19;;;20.79;68.04
66945;BME280;53853;51.982;5.928;2023-07-29T07:44:53;100629.09;;;20.86;67.72
66945;BME280;53853;51.982;5.928;2023-07-29T07:47:23;100621.94;;;20.92;67.72
66945;BME280;53853;51.982;5.928;2023-07-29T07:49:53;100626.69;;;20.96;67.88
66945;BME280;53853;51.982;5.928;2023-07-29T07:52:23;100627.91;;;21.01;68.27
66945;BME280;53853;51.982;5.928;2023-07-29T07:54:54;100634.75;;;21.03;67.94
66945;BME280;53853;51.982;5.928;2023-07-29T07:57:26;100625.41;;;20.99;67.37
66945;BME280;53853;51.982;5.928;2023-07-29T07:59:56;100623.28;;;21.01;67.38
66945;BME280;53853;51.982;5.928;2023-07-29T08:02:26;100619.31;;;21.04;67.84
66945;BME280;53853;51.982;5.928;2023-07-29T08:04:56;100615.28;;;21.13;68.20
66945;BME280;53853;51.982;5.928;2023-07-29T08:07:26;100628.06;;;21.24;68.44
66945;BME280;53853;51.982;5.928;2023-07-29T08:09:56;100629.25;;;21.28;67.70
66945;BME280;53853;51.982;5.928;2023-07-29T08:12:28;100642.66;;;21.23;67.00
66945;BME280;53853;51.982;5.928;2023-07-29T08:15:03;100635.28;;;21.12;66.84
66945;BME280;53853;51.982;5.928;2023-07-29T08:17:33;100636.75;;;21.08;67.42
66945;BME280;53853;51.982;5.928;2023-07-29T08:20:03;100638.00;;;21.12;67.66
66945;BME280;53853;51.982;5.928;2023-07-29T08:22:33;100646.03;;;21.18;67.09
66945;BME280;53853;51.982;5.928;2023-07-29T08:25:04;100636.03;;;21.19;66.93
66945;BME280;53853;51.982;5.928;2023-07-29T08:27:36;100634.97;;;21.20;66.84
66945;BME280;53853;51.982;5.928;2023-07-29T08:30:08;100630.00;;;21.17;67.08
66945;BME280;53853;51.982;5.928;2023-07-29T08:32:38;100636.09;;;21.12;67.12
66945;BME280;53853;51.982;5.928;2023-07-29T08:35:08;100634.38;;;21.18;67.56
66945;BME280;53853;51.982;5.928;2023-07-29T08:37:38;100641.63;;;21.24;67.50
66945;BME280;53853;51.982;5.928;2023-07-29T08:40:09;100646.44;;;21.22;67.09
66945;BME280;53853;51.982;5.928;2023-07-29T08:42:42;100641.28;;;21.14;67.17
66945;BME280;53853;51.982;5.928;2023-07-29T08:45:15;100640.25;;;21.15;67.51
66945;BME280;53853;51.982;5.928;2023-07-29T08:47:47;100645.06;;;21.13;67.13
66945;BME280;53853;51.982;5.928;2023-07-29T08:50:19;100650.88;;;21.16;67.49
66945;BME280;53853;51.982;5.928;2023-07-29T08:52:50;100646.44;;;21.22;67.40
66945;BME280;53853;51.982;5.928;2023-07-29T08:55:22;100637.56;;;21.33;66.92
66945;BME280;53853;51.982;5.928;2023-07-29T08:57:54;100647.81;;;21.50;67.53
66945;BME280;53853;51.982;5.928;2023-07-29T09:00:26;100650.50;;;21.68;66.30
66945;BME280;53853;51.982;5.928;2023-07-29T09:02:56;100648.19;;;21.84;66.37
66945;BME280;53853;51.982;5.928;2023-07-29T09:05:32;100641.56;;;21.98;66.21
66945;BME280;53853;51.982;5.928;2023-07-29T09:08:03;100643.56;;;22.03;64.46
66945;BME280;53853;51.982;5.928;2023-07-29T09:10:36;100642.16;;;22.00;64.39
66945;BME280;53853;51.982;5.928;2023-07-29T09:13:09;100644.88;;;22.00;63.46
66945;BME280;53853;51.982;5.928;2023-07-29T09:15:38;100648.84;;;21.98;62.92
66945;BME280;53853;51.982;5.928;2023-07-29T09:18:10;100648.03;;;21.97;63.05
66945;BME280;53853;51.982;5.928;2023-07-29T09:20:40;100648.03;;;21.97;63.22
66945;BME280;53853;51.982;5.928;2023-07-29T09:23:10;100650.38;;;21.94;62.83
66945;BME280;53853;51.982;5.928;2023-07-29T09:25:41;100640.69;;;21.86;62.34
66945;BME280;53853;51.982;5.928;2023-07-29T09:28:14;100642.66;;;21.79;62.56
66945;BME280;53853;51.982;5.928;2023-07-29T09:30:46;100635.59;;;21.78;62.37
66945;BME280;53853;51.982;5.928;2023-07-29T09:33:18;100638.19;;;21.84;63.01
66945;BME280;53853;51.982;5.928;2023-07-29T09:35:48;100623.63;;;21.97;63.10
66945;BME280;53853;51.982;5.928;2023-07-29T09:38:25;100625.53;;;22.08;61.89
66945;BME280;53853;51.982;5.928;2023-07-29T09:40:56;100625.66;;;22.14;61.60
66945;BME280;53853;51.982;5.928;2023-07-29T09:43:30;100628.53;;;22.19;61.11
66945;BME280;53853;51.982;5.928;2023-07-29T09:46:01;100626.16;;;22.22;60.98
66945;BME280;53853;51.982;5.928;2023-07-29T09:48:33;100630.66;;;22.29;61.62
66945;BME280;53853;51.982;5.928;2023-07-29T09:51:10;100626.94;;;22.41;62.09
66945;BME280;53853;51.982;5.928;2023-07-29T09:53:42;100623.06;;;22.49;60.98
66945;BME280;53853;51.982;5.928;2023-07-29T09:56:12;100632.38;;;22.41;60.78
66945;BME280;53853;51.982;5.928;2023-07-29T09:58:46;100626.09;;;22.41;61.68
66945;BME280;53853;51.982;5.928;2023-07-29T10:01:18;100626.47;;;22.45;61.67
66945;BME280;53853;51.982;5.928;2023-07-29T10:03:49;100623.88;;;22.50;61.95
66945;BME280;53853;51.982;5.928;2023-07-29T10:06:19;100630.50;;;22.54;61.45
66945;BME280;53853;51.982;5.928;2023-07-29T10:08:50;100617.97;;;22.53;61.22
66945;BME280;53853;51.982;5.928;2023-07-29T10:11:21;100618.44;;;22.61;61.71
66945;BME280;53853;51.982;5.928;2023-07-29T10:13:54;100609.84;;;22.76;62.05
66945;BME280;53853;51.982;5.928;2023-07-29T10:16:25;100616.56;;;22.86;60.28
66945;BME280;53853;51.982;5.928;2023-07-29T10:18:56;100618.69;;;22.95;59.95
66945;BME280;53853;51.982;5.928;2023-07-29T10:21:26;100613.41;;;23.12;60.36
66945;BME280;53853;51.982;5.928;2023-07-29T10:23:58;100610.25;;;23.32;59.59
66945;BME280;53853;51.982;5.928;2023-07-29T10:26:32;100604.31;;;23.47;58.36
66945;BME280;53853;51.982;5.928;2023-07-29T10:29:08;100620.09;;;23.62;57.66
66945;BME280;53853;51.982;5.928;2023-07-29T10:31:43;100621.47;;;23.77;57.51
66945;BME280;53853;51.982;5.928;2023-07-29T10:34:14;100615.41;;;23.86;56.73
66945;BME280;53853;51.982;5.928;2023-07-29T10:36:46;100619.56;;;23.89;55.98
66945;BME280;53853;51.982;5.928;2023-07-29T10:39:17;100628.47;;;23.84;56.51
66945;BME280;53853;51.982;5.928;2023-07-29T10:42:06;100627.47;;;23.91;57.02
66945;BME280;53853;51.982;5.928;2023-07-29T10:44:54;100629.66;;;24.05;56.91
66945;BME280;53853;51.982;5.928;2023-07-29T10:47:25;100624.16;;;24.17;57.18
66945;BME280;53853;51.982;5.928;2023-07-29T10:49:57;100628.63;;;24.23;56.35
66945;BME280;53853;51.982;5.928;2023-07-29T10:52:40;100619.13;;;24.26;55.32
66945;BME280;53853;51.982;5.928;2023-07-29T10:55:27;100624.56;;;24.26;55.64
66945;BME280;53853;51.982;5.928;2023-07-29T10:58:15;100621.84;;;24.26;55.40
66945;BME280;53853;51.982;5.928;2023-07-29T11:00:49;100619.94;;;24.27;55.45
66945;BME280;53853;51.982;5.928;2023-07-29T11:03:19;100617.63;;;24.18;54.99
66945;BME280;53853;51.982;5.928;2023-07-29T11:05:52;100617.63;;;24.18;56.09
66945;BME280;53853;51.982;5.928;2023-07-29T11:08:26;100614.16;;;24.23;55.74
66945;BME280;53853;51.982;5.928;2023-07-29T11:11:04;100616.88;;;24.23;55.18
66945;BME280;53853;51.982;5.928;2023-07-29T11:13:36;100620.59;;;24.17;55.74
66945;BME280;53853;51.982;5.928;2023-07-29T11:16:11;100608.72;;;24.23;56.17
66945;BME280;53853;51.982;5.928;2023-07-29T11:18:47;100615.31;;;24.27;56.29
66945;BME280;53853;51.982;5.928;2023-07-29T11:21:17;100624.22;;;24.22;55.54
66945;BME280;53853;51.982;5.928;2023-07-29T11:23:48;100619.28;;;24.19;55.75
66945;BME280;53853;51.982;5.928;2023-07-29T11:26:18;100622.00;;;24.19;56.03
66945;BME280;53853;51.982;5.928;2023-07-29T11:28:48;100619.28;;;24.19;56.30
66945;BME280;53853;51.982;5.928;2023-07-29T11:31:21;100614.00;;;24.13;56.13
66945;BME280;53853;51.982;5.928;2023-07-29T11:33:51;100622.13;;;23.96;54.98
66945;BME280;53853;51.982;5.928;2023-07-29T11:36:21;100618.84;;;23.82;56.15
66945;BME280;53853;51.982;5.928;2023-07-29T11:38:51;100614.84;;;23.73;56.89
66945;BME280;53853;51.982;5.928;2023-07-29T11:41:21;100616.66;;;23.67;57.41
66945;BME280;53853;51.982;5.928;2023-07-29T11:43:51;100616.09;;;23.65;57.69
66945;BME280;53853;51.982;5.928;2023-07-29T11:46:25;100618.44;;;23.61;57.54
66945;BME280;53853;51.982;5.928;2023-07-29T11:48:55;100631.13;;;23.56;57.87
66945;BME280;53853;51.982;5.928;2023-07-29T11:51:26;100632.91;;;23.50;58.25
66945;BME280;53853;51.982;5.928;2023-07-29T11:54:03;100624.91;;;23.43;58.86
66945;BME280;53853;51.982;5.928;2023-07-29T11:56:33;100634.25;;;23.36;59.03
66945;BME280;53853;51.982;5.928;2023-07-29T11:59:04;100638.66;;;23.25;59.81
66945;BME280;53853;51.982;5.928;2023-07-29T12:01:36;100651.41;;;23.01;61.12
66945;BME280;53853;51.982;5.928;2023-07-29T12:04:07;100657.31;;;22.74;62.12
66945;BME280;53853;51.982;5.928;2023-07-29T12:06:38;100661.41;;;22.41;63.29
66945;BME280;53853;51.982;5.928;2023-07-29T12:09:08;100657.75;;;22.17;63.95
66945;BME280;53853;51.982;5.928;2023-07-29T12:11:40;100666.22;;;21.97;64.73
66945;BME280;53853;51.982;5.928;2023-07-29T12:14:11;100667.41;;;21.82;64.57
66945;BME280;53853;51.982;5.928;2023-07-29T12:16:44;100671.00;;;21.64;67.10
66945;BME280;53853;51.982;5.928;2023-07-29T12:19:15;100671.50;;;21.36;68.35
66945;BME280;53853;51.982;5.928;2023-07-29T12:21:45;100656.72;;;21.13;69.44
66945;BME280;53853;51.982;5.928;2023-07-29T12:24:15;100660.13;;;21.09;69.00
66945;BME280;53853;51.982;5.928;2023-07-29T12:26:46;100649.28;;;21.09;70.60
66945;BME280;53853;51.982;5.928;2023-07-29T12:29:18;100653.44;;;21.11;70.69
66945;BME280;53853;51.982;5.928;2023-07-29T12:31:58;100660.47;;;21.12;71.05
66945;BME280;53853;51.982;5.928;2023-07-29T12:34:29;100651.22;;;21.20;71.12
66945;BME280;53853;51.982;5.928;2023-07-29T12:37:02;100661.19;;;21.26;71.17
66945;BME280;53853;51.982;5.928;2023-07-29T12:39:34;100657.66;;;21.26;71.09
66945;BME280;53853;51.982;5.928;2023-07-29T12:42:05;100652.16;;;21.32;70.66
66945;BME280;53853;51.982;5.928;2023-07-29T12:44:35;100647.09;;;21.36;70.17
66945;BME280;53853;51.982;5.928;2023-07-29T12:47:08;100654.31;;;21.42;70.36
66945;BME280;53853;51.982;5.928;2023-07-29T12:49:38;100660.09;;;21.52;70.40
66945;BME280;53853;51.982;5.928;2023-07-29T12:52:08;100665.13;;;21.67;70.25
66945;BME280;53853;51.982;5.928;2023-07-29T12:54:38;100674.38;;;21.78;69.90
66945;BME280;53853;51.982;5.928;2023-07-29T12:57:11;100679.47;;;21.86;69.17
66945;BME280;53853;51.982;5.928;2023-07-29T12:59:40;100677.75;;;21.92;69.03
66945;BME280;53853;51.982;5.928;2023-07-29T13:02:13;100682.16;;;22.05;69.18
66945;BME280;53853;51.982;5.928;2023-07-29T13:04:43;100681.25;;;22.11;67.66
66945;BME280;53853;51.982;5.928;2023-07-29T13:07:13;100685.81;;;22.11;67.55
66945;BME280;53853;51.982;5.928;2023-07-29T13:09:43;100673.34;;;22.10;67.44
66945;BME280;53853;51.982;5.928;2023-07-29T13:12:12;100659.44;;;22.18;67.85
66945;BME280;53853;51.982;5.928;2023-07-29T13:14:42;100655.50;;;22.32;68.37